Saint Johns, Arizona
Current Conditions -  °F | °C
As of 12:54 AM on Friday 19 Dec 2014 (Local Time) from KSJN Reporting Station
Clear Clear  
Wind Chill: 29°   Ceiling: Unl
Heat Index: 29°   Visibility: 10mi
Dew Point: 27°   Wind: 3mph
Humidity: 92%   Direction: 280°W
Pressure: 30.19"   Gusts: NA
Location:  34.51°N, 109.36°W
Report Text: KSJN 190754Z AUTO 28003KT 10SM CLR M02/M03 A3019 RMK AO2 SLP222 I1000 T10171028
Loading
Personal Weather Stations






























Interactive Weather Map New forecast layout! Learn more

10-Day Weather Forecast

Advertisements
Track Severe Weather on mobile